This is the latest recevied weather packets stored in our database for station/object HS5SQI-2. If no packets are shown the sender has not sent any weather packets the latest 10 day(s).
| Time | Temp. | Humidity | Pressure | Rain* | Wind** | Luminosity | Snow |
|---|---|---|---|---|---|---|---|
| 1778029159 | 32.78° C | 77% | 1008 hPa | - | - | 0 W/m² | - |
| 1778028537 | 32.22° C | 78% | 1008 hPa | - | - | 0 W/m² | - |
| 1778027915 | 32.22° C | 79% | 1007 hPa | - | - | 0 W/m² | - |
| 1778027293 | 31.67° C | 81% | 1007 hPa | - | - | 0 W/m² | - |
| 1778026671 | 31.67° C | 81% | 1007 hPa | - | - | 0 W/m² | - |
| 1778026049 | 31.11° C | 82% | 1007 hPa | - | - | 0 W/m² | - |
| 1778025427 | 31.11° C | 83% | 1007 hPa | - | - | 0 W/m² | - |
| 1778024805 | 31.67° C | 80% | 1007 hPa | - | - | 0 W/m² | - |
| 1778024183 | 31.11° C | 82% | 1007 hPa | - | - | 0 W/m² | - |
| 1778023561 | 31.11° C | 82% | 1007 hPa | - | - | 0 W/m² | - |
| 1778022939 | 31.11° C | 80% | 1006 hPa | - | - | 0 W/m² | - |
| 1778022317 | 31.67° C | 79% | 1006 hPa | - | - | 0 W/m² | - |
| 1778021695 | 31.11° C | 81% | 1006 hPa | - | - | 0 W/m² | - |
| 1778021073 | 30.56° C | 84% | 1006 hPa | - | - | 0 W/m² | - |
| 1778020451 | 31.11° C | 81% | 1006 hPa | - | - | 0 W/m² | - |
| 1778019828 | 31.67° C | 78% | 1006 hPa | - | - | 0 W/m² | - |
| 1778019206 | 31.67° C | 79% | 1006 hPa | - | - | 0 W/m² | - |
| 1778018584 | 31.11° C | 80% | 1006 hPa | - | - | 0 W/m² | - |
| 1778017962 | 31.67° C | 77% | 1006 hPa | - | - | 0 W/m² | - |
| 1778017340 | 31.67° C | 78% | 1006 hPa | - | - | 0 W/m² | - |
| 1778016718 | 31.11° C | 79% | 1006 hPa | - | - | 0 W/m² | - |
| 1778016096 | 31.11° C | 78% | 1006 hPa | - | - | 0 W/m² | - |
| 1778015474 | 31.67° C | 78% | 1006 hPa | - | - | 0 W/m² | - |
| 1778014852 | 31.67° C | 79% | 1006 hPa | - | - | 0 W/m² | - |
| 1778014230 | 30° C | 84% | 1006 hPa | - | - | 0 W/m² | - |
* Rain since midnight (hover to see other rain measurements)
** Current wind speed in m/s (hover to see current wind gust speed)